.
WxDataArchive / Data Records for 2011-06-24
2011-06-23 June 2011 2011-06-25

Data Records for Friday, 24 June 2011

Time	Temp	Chill	HIndex	Humid	Dewpt	 Wind 	HiWind	WindDir	Rain 	Barom 
-----	----	-----	------	-----	-----	------	------	-------	-----	----- 
00:00	63.7	63.7	63.7	88	60.1	1	3	270	0.00	29.642 
00:05	63.7	63.7	63.7	88	60.1	0	2	270	0.00	29.642 
00:10	63.7	63.7	63.7	88	60.1	1	3	270	0.00	29.642 
00:15	63.7	63.7	63.7	87	59.8	1	3	270	0.00	29.647 
00:20	63.7	63.7	63.7	87	59.8	0	2	270	0.00	29.647 
00:25	63.7	63.7	63.7	87	59.8	0	1	270	0.00	29.647 
00:30	63.5	63.5	63.5	87	59.6	1	4	270	0.00	29.646 
00:35	63.5	63.5	63.5	87	59.6	0	2	292	0.00	29.646 
00:40	63.4	63.4	63.4	87	59.5	0	2	292	0.00	29.646 
00:45	63.4	63.4	63.4	87	59.5	0	1	292	0.00	29.647 
00:50	63.4	63.4	63.4	87	59.5	0	2	292	0.00	29.647 
00:55	63.4	63.4	63.4	87	59.5	1	3	292	0.00	29.647 
01:00	63.4	63.4	63.4	87	59.5	1	3	292	0.00	29.646 
01:05	63.2	63.2	63.2	87	59.3	1	4	292	0.00	29.646 
01:10	63.2	63.2	63.2	88	59.6	1	4	292	0.00	29.646 
01:15	63.1	63.1	63.1	88	59.5	0	2	292	0.00	29.642 
01:20	62.9	62.9	62.9	89	59.6	0	2	292	0.00	29.642 
01:25	62.9	62.9	62.9	89	59.6	0	2	292	0.01	29.642 
01:30	62.7	62.7	62.7	90	59.7	1	4	292	0.00	29.641 
01:35	62.4	62.4	62.4	90	59.4	1	2	292	0.00	29.641 
01:40	62.1	62.1	62.1	91	59.4	0	2	292	0.00	29.641 
01:45	62.0	62.0	62.0	91	59.3	2	5	270	0.01	29.645 
01:50	61.8	61.8	61.8	92	59.4	0	2	270	0.00	29.645 
01:55	61.6	61.6	61.6	92	59.2	0	3	270	0.00	29.645 
02:00	61.6	61.6	61.6	92	59.2	0	2	270	0.00	29.644 
02:05	61.5	61.5	61.5	93	59.5	0	3	270	0.00	29.644 
02:10	61.5	61.5	61.5	93	59.5	0	2	270	0.00	29.644 
02:15	61.5	61.5	61.5	93	59.5	0	2	270	0.00	29.644 
02:20	61.3	61.3	61.3	93	59.3	0	2	270	0.00	29.644 
02:25	61.3	61.3	61.3	93	59.3	1	3	270	0.00	29.644 
02:30	61.3	61.3	61.3	93	59.3	0	2	270	0.00	29.643 
02:35	61.3	61.3	61.3	94	59.6	0	3	270	0.00	29.643 
02:40	61.3	61.3	61.3	94	59.6	0	2	270	0.00	29.643 
02:45	61.2	61.2	61.2	94	59.5	0	1	270	0.00	29.644 
02:50	61.2	61.2	61.2	94	59.5	0	2	270	0.00	29.644 
02:55	61.2	61.2	61.2	94	59.5	0	2	270	0.00	29.644 
03:00	61.2	61.2	61.2	94	59.5	0	3	270	0.00	29.644 
03:05	61.2	61.2	61.2	94	59.5	0	3	270	0.00	29.644 
03:10	61.2	61.2	61.2	94	59.5	2	4	270	0.00	29.644 
03:15	61.2	61.2	61.2	94	59.5	0	2	270	0.00	29.640 
03:20	61.2	61.2	61.2	94	59.5	0	2	270	0.00	29.640 
03:25	61.2	61.2	61.2	94	59.5	1	3	270	0.00	29.640 
03:30	61.2	61.2	61.2	94	59.5	0	1	270	0.00	29.635 
03:35	61.2	61.2	61.2	94	59.5	1	3	270	0.00	29.635 
03:40	61.2	61.2	61.2	94	59.5	1	3	270	0.00	29.635 
03:45	61.2	61.2	61.2	94	59.5	1	3	270	0.00	29.633 
03:50	61.2	61.2	61.2	94	59.5	0	2	270	0.00	29.633 
03:55	61.2	61.2	61.2	94	59.5	1	3	270	0.00	29.633 
04:00	61.3	61.3	61.3	93	59.3	0	2	270	0.00	29.632 
04:05	61.3	61.3	61.3	93	59.3	0	3	270	0.00	29.632 
04:10	61.3	61.3	61.3	93	59.3	0	3	270	0.00	29.632 
04:15	61.3	61.3	61.3	93	59.3	1	3	248	0.00	29.631 
04:20	61.3	61.3	61.3	93	59.3	1	3	248	0.00	29.631 
04:25	61.3	61.3	61.3	93	59.3	0	2	248	0.00	29.631 
04:30	61.3	61.3	61.3	93	59.3	1	3	248	0.00	29.633 
04:35	61.5	61.5	61.5	93	59.5	0	2	248	0.00	29.633 
04:40	61.3	61.3	61.3	93	59.3	0	3	248	0.00	29.633 
04:45	61.5	61.5	61.5	93	59.5	1	4	248	0.00	29.629 
04:50	61.5	61.5	61.5	93	59.5	1	3	248	0.00	29.629 
04:55	61.5	61.5	61.5	93	59.5	1	3	248	0.00	29.629 
05:00	61.5	61.5	61.5	93	59.5	0	3	248	0.00	29.630 
05:05	61.5	61.5	61.5	93	59.5	1	4	248	0.00	29.630 
05:10	61.5	61.5	61.5	93	59.5	1	3	248	0.00	29.630 
05:15	61.5	61.5	61.5	93	59.5	0	2	248	0.00	29.634 
05:20	61.5	61.5	61.5	93	59.5	0	1	248	0.00	29.634 
05:25	61.5	61.5	61.5	93	59.5	1	4	248	0.00	29.634 
05:30	61.5	61.5	61.5	93	59.5	1	3	248	0.00	29.637 
05:35	61.5	61.5	61.5	93	59.5	0	2	248	0.00	29.637 
05:40	61.3	61.3	61.3	93	59.3	1	4	248	0.00	29.637 
05:45	61.3	61.3	61.3	93	59.3	1	3	248	0.00	29.643 
05:50	61.2	61.2	61.2	93	59.2	1	3	248	0.00	29.643 
05:55	61.0	61.0	61.0	94	59.3	1	2	248	0.00	29.643 
06:00	61.0	61.0	61.0	94	59.3	1	3	248	0.00	29.645 
06:05	61.0	61.0	61.0	94	59.3	0	3	248	0.00	29.645 
06:10	61.0	61.0	61.0	94	59.3	0	1	248	0.00	29.645 
06:15	61.0	61.0	61.0	94	59.3	0	3	248	0.00	29.648 
06:20	61.0	61.0	61.0	94	59.3	0	2	248	0.01	29.648 
06:25	61.0	61.0	61.0	94	59.3	1	3	248	0.00	29.648 
06:30	61.0	61.0	61.0	95	59.6	1	2	248	0.00	29.656 
06:35	60.9	60.9	60.9	95	59.5	1	3	248	0.00	29.656 
06:40	60.9	60.9	60.9	95	59.5	1	3	248	0.00	29.656 
06:45	60.9	60.9	60.9	95	59.5	0	2	248	0.00	29.661 
06:50	60.9	60.9	60.9	95	59.5	1	3	248	0.00	29.661 
06:55	61.0	61.0	61.0	95	59.6	1	3	248	0.00	29.661 
07:00	61.0	61.0	61.0	95	59.6	1	2	248	0.00	29.664 
07:05	61.0	61.0	61.0	95	59.6	1	3	248	0.00	29.664 
07:10	60.9	60.9	60.9	95	59.5	1	3	248	0.00	29.664 
07:15	60.9	60.9	60.9	95	59.5	2	4	292	0.00	29.668 
07:20	60.9	60.9	60.9	95	59.5	2	3	292	0.00	29.668 
07:25	60.9	60.9	60.9	95	59.5	1	3	292	0.00	29.668 
07:30	61.0	61.0	61.0	95	59.6	1	2	292	0.00	29.675 
07:35	61.0	61.0	61.0	95	59.6	1	3	292	0.00	29.675 
07:40	61.0	61.0	61.0	95	59.6	0	2	292	0.00	29.675 
07:45	61.0	61.0	61.0	95	59.6	1	2	292	0.00	29.679 
07:50	61.0	61.0	61.0	95	59.6	1	3	292	0.01	29.679 
07:55	61.0	61.0	61.0	95	59.6	1	3	292	0.00	29.679 
08:00	61.0	61.0	61.0	95	59.6	1	3	292	0.00	29.681 
08:05	61.2	61.2	61.2	95	59.8	1	3	292	0.00	29.681 
08:10	61.2	61.2	61.2	95	59.8	1	2	292	0.00	29.681 
08:15	61.2	61.2	61.2	95	59.8	0	2	292	0.00	29.684 
08:20	61.2	61.2	61.2	95	59.8	1	4	292	0.00	29.684 
08:25	61.2	61.2	61.2	95	59.8	1	2	292	0.00	29.684 
08:30	61.3	61.3	61.3	95	59.9	1	3	248	0.00	29.688 
08:35	61.3	61.3	61.3	95	59.9	1	3	248	0.00	29.688 
08:40	61.3	61.3	61.3	96	60.1	1	3	248	0.00	29.688 
08:45	61.3	61.3	61.3	96	60.1	1	4	248	0.00	29.695 
08:50	61.5	61.5	61.5	96	60.3	2	5	270	0.00	29.695 
08:55	61.5	61.5	61.5	96	60.3	2	4	270	0.00	29.695 
09:00	61.5	61.5	61.5	95	60.1	2	4	270	0.00	29.695 
09:05	61.6	61.6	61.6	95	60.2	2	4	270	0.00	29.695 
09:10	61.6	61.6	61.6	95	60.2	2	4	270	0.00	29.695 
09:15	61.6	61.6	61.6	95	60.2	2	5	270	0.00	29.699 
09:20	61.6	61.6	61.6	95	60.2	2	5	270	0.00	29.699 
09:25	61.6	61.6	61.6	95	60.2	2	4	270	0.00	29.699 
09:30	62.0	62.0	62.0	95	60.5	2	5	270	0.00	29.699 
09:35	62.1	62.1	62.1	95	60.6	2	5	270	0.00	29.699 
09:40	62.3	62.3	62.3	94	60.5	2	4	270	0.00	29.699 
09:45	62.4	62.4	62.4	94	60.6	1	4	292	0.00	29.700 
09:50	62.4	62.4	62.4	94	60.6	1	3	292	0.00	29.700 
09:55	62.4	62.4	62.4	93	60.3	2	7	315	0.00	29.700 
10:00	62.3	62.3	62.3	93	60.2	3	7	270	0.00	29.702 
10:05	62.4	62.4	62.4	93	60.3	2	6	270	0.00	29.702 
10:10	62.6	62.6	62.6	92	60.2	2	4	270	0.00	29.702 
10:15	62.6	62.6	62.6	92	60.2	2	5	270	0.00	29.704 
10:20	62.7	62.7	62.7	92	60.3	2	5	270	0.00	29.704 
10:25	63.1	63.1	63.1	92	60.7	2	6	270	0.00	29.704 
10:30	63.1	63.1	63.1	91	60.4	2	5	270	0.00	29.702 
10:35	63.1	63.1	63.1	90	60.1	2	6	270	0.00	29.702 
10:40	63.2	63.2	63.2	90	60.2	1	3	270	0.00	29.702 
10:45	63.4	63.4	63.4	89	60.1	2	5	338	0.00	29.711 
10:50	63.4	63.4	63.4	89	60.1	2	5	292	0.00	29.711 
10:55	63.5	63.5	63.5	88	59.9	2	4	270	0.00	29.711 
11:00	63.9	63.9	63.9	88	60.3	2	6	292	0.00	29.711 
11:05	63.9	63.9	63.9	87	59.9	2	7	270	0.00	29.711 
11:10	63.7	63.7	63.7	88	60.1	3	6	270	0.00	29.711 
11:15	63.1	63.1	63.1	88	59.5	3	6	270	0.00	29.715 
11:20	62.6	62.6	62.6	90	59.6	3	5	270	0.00	29.715 
11:25	62.4	62.4	62.4	91	59.7	2	4	270	0.00	29.715 
11:30	62.7	62.7	62.7	91	60.0	1	3	270	0.00	29.717 
11:35	63.1	63.1	63.1	91	60.4	2	4	270	0.00	29.717 
11:40	63.7	63.7	63.7	92	61.3	2	4	315	0.00	29.717 
11:45	64.2	64.2	64.2	90	61.2	3	6	270	0.00	29.714 
11:50	64.5	64.5	64.5	89	61.2	1	3	270	0.00	29.714 
11:55	64.5	64.5	64.5	88	60.9	1	4	270	0.00	29.714 
12:00	64.2	64.2	64.2	86	59.9	1	6	270	0.00	29.723 
12:05	64.2	64.2	64.2	86	59.9	2	6	270	0.00	29.723 
12:10	64.0	64.0	64.0	85	59.4	1	4	270	0.00	29.723 
12:15	64.3	64.3	64.3	84	59.4	2	4	270	0.00	29.723 
12:20	64.5	64.5	64.5	84	59.6	2	5	270	0.00	29.723 
12:25	64.7	64.7	64.7	83	59.4	2	6	270	0.00	29.723 
12:30	64.8	64.8	64.8	84	59.8	1	4	270	0.00	29.725 
12:35	65.3	65.3	65.3	84	60.3	1	4	270	0.00	29.725 
12:40	66.0	66.0	66.0	83	60.7	1	3	270	0.00	29.725 
12:45	66.3	66.3	66.3	80	59.9	3	4	292	0.00	29.727 
12:50	66.9	66.9	66.9	80	60.5	2	4	315	0.00	29.727 
12:55	67.8	67.8	67.8	79	61.0	1	4	292	0.00	29.727 
13:00	68.6	68.6	68.6	78	61.5	1	4	270	0.00	29.724 
13:05	68.8	68.8	68.8	76	60.9	2	4	270	0.00	29.724 
13:10	68.4	68.4	68.4	75	60.2	2	5	248	0.00	29.724 
13:15	68.3	68.3	68.3	75	60.1	2	5	248	0.00	29.726 
13:20	67.9	67.9	67.9	76	60.0	3	5	248	0.00	29.726 
13:25	67.1	67.1	67.1	77	59.6	2	4	270	0.00	29.726 
13:30	66.6	66.6	66.6	79	59.9	1	4	270	0.00	29.735 
13:35	66.0	66.0	66.0	81	60.0	1	3	270	0.00	29.735 
13:40	66.0	66.0	66.0	82	60.3	1	4	270	0.00	29.735 
13:45	65.8	65.8	65.8	81	59.8	1	4	270	0.00	29.732 
13:50	65.6	65.6	65.6	82	59.9	2	5	270	0.00	29.732 
13:55	65.5	65.5	65.5	82	59.9	1	5	292	0.00	29.732 
14:00	65.5	65.5	65.5	83	60.2	1	5	292	0.00	29.738 
14:05	65.3	65.3	65.3	83	60.0	2	5	270	0.00	29.738 
14:10	65.0	65.0	65.0	83	59.7	2	5	270	0.00	29.738 
14:15	64.8	64.8	64.8	85	60.2	2	4	270	0.00	29.744 
14:20	64.7	64.7	64.7	87	60.7	0	3	270	0.00	29.744 
14:25	64.0	64.0	64.0	87	60.0	2	5	270	0.00	29.744 
14:30	63.9	63.9	63.9	88	60.3	2	5	270	0.00	29.747 
14:35	63.9	63.9	63.9	88	60.3	2	5	270	0.00	29.747 
14:40	64.2	64.2	64.2	88	60.6	2	5	270	0.00	29.747 
14:45	64.3	64.3	64.3	87	60.3	2	5	292	0.00	29.747 
14:50	64.5	64.5	64.5	86	60.2	2	6	270	0.00	29.747 
14:55	64.5	64.5	64.5	86	60.2	2	5	292	0.00	29.747 
15:00	64.3	64.3	64.3	85	59.7	2	4	270	0.00	29.750 
15:05	64.2	64.2	64.2	84	59.3	3	6	270	0.00	29.750 
15:10	64.2	64.2	64.2	85	59.6	2	5	292	0.00	29.750 
15:15	64.3	64.3	64.3	85	59.7	2	5	292	0.00	29.758 
15:20	64.7	64.7	64.7	85	60.1	1	4	270	0.00	29.758 
15:25	65.3	65.3	65.3	84	60.3	1	4	315	0.00	29.758 
15:30	65.0	65.0	65.0	82	59.4	3	6	270	0.00	29.760 
15:35	65.0	65.0	65.0	83	59.7	3	6	270	0.00	29.760 
15:40	64.7	64.7	64.7	83	59.4	3	5	270	0.00	29.760 
15:45	64.7	64.7	64.7	83	59.4	3	6	270	0.00	29.767 
15:50	64.5	64.5	64.5	83	59.2	3	6	270	0.00	29.767 
15:55	64.5	64.5	64.5	83	59.2	2	6	270	0.00	29.767 
16:00	64.5	64.5	64.5	83	59.2	3	6	270	0.00	29.776 
16:05	64.5	64.5	64.5	83	59.2	3	7	270	0.00	29.776 
16:10	64.5	64.5	64.5	83	59.2	2	5	270	0.00	29.776 
16:15	64.5	64.5	64.5	82	58.9	3	5	270	0.00	29.777 
16:20	64.7	64.7	64.7	82	59.1	3	7	270	0.00	29.777 
16:25	64.8	64.8	64.8	82	59.2	2	4	270	0.00	29.777 
16:30	64.8	64.8	64.8	81	58.8	3	6	270	0.00	29.777 
16:35	64.5	64.5	64.5	81	58.5	3	6	292	0.00	29.777 
16:40	64.2	64.2	64.2	82	58.6	3	7	270	0.00	29.777 
16:45	64.0	64.0	64.0	83	58.7	3	6	270	0.00	29.777 
16:50	63.7	63.7	63.7	85	59.1	3	6	270	0.00	29.777 
16:55	63.1	63.1	63.1	86	58.8	2	5	315	0.00	29.777 
17:00	62.7	62.7	62.7	87	58.8	2	5	270	0.00	29.779 
17:05	62.6	62.6	62.6	88	59.0	2	6	270	0.00	29.779 
17:10	62.4	62.4	62.4	88	58.8	2	5	270	0.00	29.779 
17:15	62.4	62.4	62.4	89	59.1	3	5	270	0.00	29.781 
17:20	62.4	62.4	62.4	90	59.4	1	3	315	0.00	29.781 
17:25	62.6	62.6	62.6	90	59.6	2	4	292	0.00	29.781 
17:30	62.7	62.7	62.7	89	59.4	2	3	292	0.00	29.778 
17:35	62.9	62.9	62.9	89	59.6	1	5	292	0.00	29.778 
17:40	63.2	63.2	63.2	88	59.6	1	2	292	0.00	29.778 
17:45	63.4	63.4	63.4	88	59.8	1	3	292	0.00	29.777 
17:50	63.2	63.2	63.2	87	59.3	2	6	270	0.00	29.777 
17:55	63.2	63.2	63.2	86	58.9	1	3	338	0.00	29.777 
18:00	63.4	63.4	63.4	85	58.8	1	3	315	0.00	29.779 
18:05	63.4	63.4	63.4	84	58.5	1	5	315	0.00	29.779 
18:10	63.2	63.2	63.2	84	58.3	2	3	315	0.00	29.779 
18:15	63.2	63.2	63.2	83	57.9	2	5	270	0.00	29.779 
18:20	63.4	63.4	63.4	82	57.8	2	4	292	0.00	29.779 
18:25	63.4	63.4	63.4	82	57.8	2	4	270	0.00	29.779 
18:30	63.5	63.5	63.5	81	57.6	1	3	338	0.00	29.779 
18:35	63.7	63.7	63.7	81	57.8	2	5	315	0.00	29.779 
18:40	63.5	63.5	63.5	81	57.6	3	6	270	0.00	29.779 
18:45	63.5	63.5	63.5	81	57.6	2	4	292	0.00	29.780 
18:50	63.5	63.5	63.5	81	57.6	2	6	270	0.00	29.780 
18:55	63.7	63.7	63.7	81	57.8	1	3	315	0.00	29.780 
19:00	63.5	63.5	63.5	80	57.2	2	4	292	0.00	29.787 
19:05	63.5	63.5	63.5	81	57.6	2	5	270	0.00	29.787 
19:10	63.5	63.5	63.5	81	57.6	1	4	270	0.00	29.787 
19:15	63.4	63.4	63.4	80	57.1	2	4	292	0.00	29.790 
19:20	63.4	63.4	63.4	81	57.5	1	5	292	0.00	29.790 
19:25	63.4	63.4	63.4	81	57.5	1	6	270	0.00	29.790 
19:30	63.5	63.5	63.5	81	57.6	1	4	270	0.00	29.792 
19:35	63.5	63.5	63.5	81	57.6	2	4	248	0.00	29.792 
19:40	63.5	63.5	63.5	81	57.6	1	4	248	0.00	29.792 
19:45	63.4	63.4	63.4	81	57.5	1	3	248	0.00	29.795 
19:50	63.4	63.4	63.4	81	57.5	2	5	292	0.00	29.795 
19:55	63.2	63.2	63.2	81	57.3	1	4	270	0.00	29.795 
20:00	63.2	63.2	63.2	81	57.3	1	5	270	0.00	29.795 
20:05	63.2	63.2	63.2	82	57.6	1	4	270	0.00	29.795 
20:10	63.2	63.2	63.2	82	57.6	1	4	270	0.00	29.795 
20:15	63.1	63.1	63.1	82	57.5	1	4	270	0.00	29.795 
20:20	63.1	63.1	63.1	82	57.5	2	4	270	0.00	29.795 
20:25	63.1	63.1	63.1	82	57.5	1	3	270	0.00	29.795 
20:30	63.1	63.1	63.1	83	57.8	0	2	292	0.00	29.796 
20:35	62.9	62.9	62.9	83	57.7	1	2	292	0.00	29.796 
20:40	62.9	62.9	62.9	83	57.7	0	2	292	0.00	29.796 
20:45	62.9	62.9	62.9	83	57.7	1	4	292	0.00	29.796 
20:50	62.7	62.7	62.7	84	57.8	2	4	292	0.00	29.796 
20:55	62.6	62.6	62.6	84	57.7	2	6	270	0.00	29.796 
21:00	62.6	62.6	62.6	84	57.7	1	3	270	0.00	29.796 
21:05	62.4	62.4	62.4	84	57.5	1	5	292	0.00	29.796 
21:10	62.3	62.3	62.3	84	57.4	2	5	292	0.00	29.796 
21:15	62.3	62.3	62.3	84	57.4	1	4	270	0.00	29.799 
21:20	62.1	62.1	62.1	84	57.2	1	3	292	0.00	29.799 
21:25	62.1	62.1	62.1	84	57.2	1	3	292	0.00	29.799 
21:30	62.0	62.0	62.0	84	57.1	0	2	292	0.00	29.797 
21:35	62.0	62.0	62.0	84	57.1	0	1	292	0.00	29.797 
21:40	62.0	62.0	62.0	84	57.1	0	2	292	0.00	29.797 
21:45	61.8	61.8	61.8	84	56.9	1	3	292	0.00	29.797 
21:50	61.8	61.8	61.8	84	56.9	0	2	292	0.00	29.797 
21:55	61.6	61.6	61.6	85	57.0	1	3	292	0.00	29.797 
22:00	61.6	61.6	61.6	85	57.0	0	1	292	0.00	29.808 
22:05	61.6	61.6	61.6	85	57.0	0	1	292	0.00	29.808 
22:10	61.6	61.6	61.6	85	57.0	1	2	292	0.00	29.808 
22:15	61.6	61.6	61.6	85	57.0	1	3	292	0.00	29.809 
22:20	61.6	61.6	61.6	85	57.0	1	2	292	0.00	29.809 
22:25	61.6	61.6	61.6	85	57.0	0	1	292	0.00	29.809 
22:30	61.6	61.6	61.6	86	57.4	0	1	292	0.00	29.819 
22:35	61.6	61.6	61.6	85	57.0	0	1	292	0.00	29.819 
22:40	61.6	61.6	61.6	85	57.0	0	2	292	0.00	29.819 
22:45	61.6	61.6	61.6	85	57.0	0	0	---	0.00	29.824 
22:50	61.6	61.6	61.6	85	57.0	0	1	292	0.00	29.824 
22:55	61.5	61.5	61.5	85	56.9	0	1	292	0.00	29.824 
23:00	61.5	61.5	61.5	85	56.9	0	1	292	0.00	29.835 
23:05	61.5	61.5	61.5	85	56.9	0	0	---	0.00	29.835 
23:10	61.3	61.3	61.3	86	57.1	0	0	---	0.00	29.835 
23:15	61.3	61.3	61.3	86	57.1	0	0	---	0.00	29.843 
23:20	61.2	61.2	61.2	86	57.0	0	0	---	0.00	29.843 
23:25	61.0	61.0	61.0	86	56.8	0	0	---	0.00	29.843 
23:30	60.9	60.9	60.9	86	56.7	0	0	---	0.00	29.845 
23:35	60.9	60.9	60.9	87	57.0	0	0	---	0.00	29.845 
23:40	60.9	60.9	60.9	87	57.0	0	0	---	0.00	29.845 
23:45	60.9	60.9	60.9	87	57.0	0	0	---	0.00	29.846 
23:50	60.9	60.9	60.9	88	57.3	0	0	---	0.00	29.846 
23:55	60.9	60.9	60.9	88	57.3	0	1	292	0.00	29.846 

CoCoRaHS
IN-AL-39
A2 Web Hosting
Creative Commons License
GoDaddy
search engine by freefind advanced

loaded 2018-11-20 06:12:53 • last modified 2010-11-18 10:43:29
Privacy PolicyDisclaimer
• wx.awcolley.com is powered by PmWiki v.2002016 •
• all content (unless otherwise noted) © 2018 A W Colley